Roches Point, Ireland

4:48 AM IST on September 16, 2014 (GMT +0100)
Cobh - Riverside | Change Station
CLOSE
Current Station
Personal Weather Station
Location: Cork, CORK
Elevation: 69 ft
Nearby Weather Stations

Elev 69 ft 51.86 °N, 8.32 °W | Updated 8 minutes ago

Mostly Cloudy
Mostly Cloudy
56.1 °F
Feels Like 56.1 °F
N
0.0
Wind Variable Wind from NW
Gusts 0.7 mph

Today
High -- | Low -- °F
--% Chance of Precip.
Yesterday
High -- | Low -- °F
Precip. -- in
7:09 AM 7:45 PM
Waning Gibbous, 49% visible
Pressure 29.95 in
Visibility 6.2 miles
Clouds Few 400 ft
Mostly Cloudy 800 ft
Dew Point 51 °F
Humidity 83%
Rainfall 0.00 in
Snow Depth Not available.
UV 0 out of 12
Pollen Not available.
Air Quality Not available.
Flu Activity Not available.
METAR EICK 160330Z 04009KT 9999 FEW004 BKN008 12/12 Q1014 TEMPO BKN004

More Conditions Fewer Conditions

Pressure 29.95 in
Visibility 6.2 miles
Clouds Few 400 ft
Mostly Cloudy 800 ft
Dew Point 51 °F
Humidity 83%
Rainfall 0.00 in
Snow Depth Not available.
UV 0 out of 12
Pollen Not available.
Air Quality Not available.
Flu Activity Not available.
METAR EICK 160330Z 04009KT 9999 FEW004 BKN008 12/12 Q1014 TEMPO BKN004

More Conditions Fewer Conditions

10-Day Weather Forecast

Almanac

Astronomy

Sep. 16, 2014 Rise Set
Actual Time 7:09 AM IST 7:45 PM IST
Civil Twilight 6:35 AM IST 8:19 PM IST
Nautical Twilight 5:54 AM IST 8:59 PM IST
Astronomical Twilight 5:11 AM IST 9:42 PM IST
Moon No Moon Rise 3:29 PM IST
Length of Visible Light 13h 44m
Length of Day
12h 36m
Tomorrow will be 3m 56s shorter.
Waning Gibbous, 49% of the Moon is Illuminated
Sep 15
Waning Gibbous
Sep 24
New
Oct 1
First Quarter
Oct 8
Full
Oct 15
Last Quarter

Yesterday's Extremes

Country Highs Country Lows

Community

WunderPhotos

Upload Photos

1,753,693 photos uploaded!

Nearby

Snow Depth

Not available.

Earthquake Activity

City Distance Mag. Time & Date
No recent earthquake activity has been reported nearby.
Minimum magnitude displayed is 2.5.

Coastal Water Temperatures

Place Temperature
No Stations Reporting

Nearby Weather Stations